Time;durP1;ratioP1;P1;durP2;ratioP2;P2;SDS_P1;SDS_P2;PMS_P1;PMS_P2;Temp;Humidity;BMP_temperature;BMP_pressure;BME280_temperature;BME280_humidity;BME280_pressure;Samples;Min_cycle;Max_cycle;Signal;HPM_P1;HPM_P2
2023/06/23 00:01:00;;;;;;;;;9.33;9.33;;;;;;;;5022820;28;50935;-62
2023/06/23 00:03:26;;;;;;;;;10.00;10.00;;;;;;;;5033149;28;50880;-62
2023/06/23 00:05:51;;;;;;;;;9.00;8.33;;;;;;;;5022253;28;51872;-61
2023/06/23 00:08:19;;;;;;;;;10.33;9.33;;;;;;;;5025321;28;51071;-62
2023/06/23 00:10:45;;;;;;;;;10.67;9.67;;;;;;;;5031271;28;51222;-61
2023/06/23 00:13:10;;;;;;;;;7.33;7.00;;;;;;;;5022521;28;51196;-61
2023/06/23 00:15:35;;;;;;;;;10.00;9.33;;;;;;;;5022816;28;53238;-61
2023/06/23 00:18:01;;;;;;;;;11.00;10.67;;;;;;;;5031763;28;51139;-61
2023/06/23 00:20:26;;;;;;;;;11.33;9.33;;;;;;;;5028425;28;51171;-61
2023/06/23 00:22:52;;;;;;;;;9.00;9.00;;;;;;;;5020969;28;51153;-61
2023/06/23 00:25:18;;;;;;;;;10.67;9.67;;;;;;;;5025268;28;51156;-60
2023/06/23 00:27:46;;;;;;;;;11.67;10.33;;;;;;;;5027240;28;51143;-62
2023/06/23 00:30:12;;;;;;;;;13.67;11.33;;;;;;;;5030232;28;50968;-62
2023/06/23 00:32:38;;;;;;;;;12.00;10.33;;;;;;;;5033262;28;51096;-62
2023/06/23 00:35:03;;;;;;;;;9.00;9.00;;;;;;;;5030971;28;51690;-62
2023/06/23 00:37:29;;;;;;;;;11.00;9.00;;;;;;;;5020928;28;51096;-61
2023/06/23 00:39:55;;;;;;;;;10.00;9.33;;;;;;;;5030425;28;51142;-61
2023/06/23 00:42:21;;;;;;;;;10.00;10.00;;;;;;;;5019441;28;51034;-61
2023/06/23 00:44:46;;;;;;;;;9.67;9.67;;;;;;;;5029223;28;51913;-62
2023/06/23 00:47:11;;;;;;;;;10.00;10.00;;;;;;;;5033834;28;51051;-61
2023/06/23 00:49:36;;;;;;;;;7.00;7.00;;;;;;;;5032448;28;51188;-62
2023/06/23 00:52:02;;;;;;;;;9.67;9.33;;;;;;;;5017807;28;50982;-62
2023/06/23 00:54:28;;;;;;;;;5.00;4.33;;;;;;;;5028944;28;53106;-60
2023/06/23 00:56:54;;;;;;;;;9.33;8.00;;;;;;;;5032208;28;51092;-62
2023/06/23 00:59:19;;;;;;;;;8.33;8.00;;;;;;;;5033038;28;51000;-62
2023/06/23 01:01:45;;;;;;;;;9.33;7.67;;;;;;;;5033656;28;51178;-63
2023/06/23 01:04:10;;;;;;;;;9.00;9.00;;;;;;;;5028590;28;53075;-62
2023/06/23 01:06:38;;;;;;;;;10.33;9.67;;;;;;;;5021108;28;51056;-61
2023/06/23 01:09:20;;;;;;;;;9.33;9.33;;;;;;;;5024784;28;50865;-62
2023/06/23 01:12:05;;;;;;;;;8.00;8.00;;;;;;;;5023683;28;51031;-62
2023/06/23 01:14:34;;;;;;;;;7.33;7.00;;;;;;;;5028088;28;52053;-61
2023/06/23 01:17:11;;;;;;;;;12.00;11.00;;;;;;;;5029603;28;51023;-62
2023/06/23 01:19:53;;;;;;;;;11.67;10.33;;;;;;;;5025209;28;50977;-61
2023/06/23 01:22:27;;;;;;;;;9.67;9.33;;;;;;;;5025022;28;51273;-61
2023/06/23 01:24:55;;;;;;;;;9.33;9.00;;;;;;;;5031233;28;52827;-62
2023/06/23 01:27:28;;;;;;;;;10.00;10.00;;;;;;;;5019567;28;51352;-61
2023/06/23 01:29:54;;;;;;;;;13.33;12.00;;;;;;;;5022280;28;51013;-61
2023/06/23 01:32:28;;;;;;;;;9.33;9.33;;;;;;;;5031626;28;51145;-60
2023/06/23 01:34:56;;;;;;;;;11.00;11.00;;;;;;;;5025941;28;52278;-60
2023/06/23 01:37:25;;;;;;;;;12.67;12.33;;;;;;;;5026494;28;51155;-61
2023/06/23 01:39:53;;;;;;;;;12.33;10.33;;;;;;;;5026725;28;51207;-60
2023/06/23 01:42:19;;;;;;;;;9.33;9.00;;;;;;;;5017211;28;50894;-60
2023/06/23 01:44:49;;;;;;;;;13.33;11.00;;;;;;;;5030279;28;51632;-62
2023/06/23 01:47:17;;;;;;;;;10.67;10.00;;;;;;;;5029827;28;50950;-62
2023/06/23 01:49:42;;;;;;;;;12.33;11.00;;;;;;;;5032665;28;50812;-61
2023/06/23 01:52:07;;;;;;;;;9.67;9.33;;;;;;;;5026235;28;51193;-61
2023/06/23 01:54:36;;;;;;;;;11.67;9.67;;;;;;;;5020558;28;51202;-62
2023/06/23 01:57:01;;;;;;;;;10.67;10.00;;;;;;;;5023448;28;50998;-62
2023/06/23 01:59:27;;;;;;;;;11.33;10.00;;;;;;;;5029264;28;51064;-61
2023/06/23 02:01:54;;;;;;;;;11.67;10.33;;;;;;;;5030177;28;51128;-61
2023/06/23 02:04:19;;;;;;;;;8.33;7.67;;;;;;;;5022740;28;51861;-61
2023/06/23 02:06:46;;;;;;;;;13.33;11.33;;;;;;;;5027018;28;50794;-61
2023/06/23 02:09:13;;;;;;;;;10.33;10.33;;;;;;;;5028447;28;51092;-62
2023/06/23 02:11:39;;;;;;;;;13.00;12.33;;;;;;;;5026095;28;51162;-62
2023/06/23 02:14:06;;;;;;;;;11.75;11.00;;;;;;;;5027555;28;51214;-59
2023/06/23 02:16:32;;;;;;;;;15.00;11.33;;;;;;;;5027723;28;51231;-61
2023/06/23 02:18:58;;;;;;;;;9.00;8.67;;;;;;;;5027093;28;51119;-61
2023/06/23 02:21:24;;;;;;;;;10.33;10.00;;;;;;;;5013911;28;51185;-61
2023/06/23 02:23:49;;;;;;;;;9.67;7.67;;;;;;;;5019887;28;52715;-61
2023/06/23 02:26:15;;;;;;;;;10.33;10.33;;;;;;;;5020852;28;51235;-61
2023/06/23 02:28:40;;;;;;;;;14.00;12.33;;;;;;;;5027035;28;51322;-61
2023/06/23 02:31:07;;;;;;;;;11.00;9.00;;;;;;;;5027889;28;51111;-61
2023/06/23 02:33:32;;;;;;;;;9.33;9.00;;;;;;;;5018183;28;51984;-61
2023/06/23 02:35:58;;;;;;;;;11.67;11.67;;;;;;;;5028131;28;51338;-62
2023/06/23 02:38:25;;;;;;;;;10.67;10.67;;;;;;;;5029899;28;50980;-62
2023/06/23 02:40:51;;;;;;;;;11.67;10.00;;;;;;;;5030090;28;51359;-61
2023/06/23 02:43:17;;;;;;;;;10.67;10.67;;;;;;;;5032623;28;51141;-61
2023/06/23 02:45:43;;;;;;;;;10.67;9.33;;;;;;;;5027250;28;51119;-62
2023/06/23 02:48:13;;;;;;;;;8.00;8.00;;;;;;;;5027137;28;51090;-61
2023/06/23 02:50:39;;;;;;;;;9.67;9.00;;;;;;;;5027694;28;50898;-61
2023/06/23 02:53:07;;;;;;;;;9.67;9.67;;;;;;;;5028470;28;51055;-61
2023/06/23 02:55:35;;;;;;;;;9.33;9.00;;;;;;;;5023871;28;51014;-61
2023/06/23 02:58:03;;;;;;;;;9.67;9.00;;;;;;;;5026727;28;51016;-61
2023/06/23 03:00:29;;;;;;;;;10.00;9.00;;;;;;;;5034163;28;50881;-61
2023/06/23 03:02:57;;;;;;;;;9.33;9.00;;;;;;;;4987934;28;1146610;-61
2023/06/23 03:05:22;;;;;;;;;8.00;7.33;;;;;;;;5032722;28;51220;-61
2023/06/23 03:07:50;;;;;;;;;9.00;7.33;;;;;;;;5026481;28;51028;-61
2023/06/23 03:10:15;;;;;;;;;7.00;7.00;;;;;;;;5033457;28;51675;-61
2023/06/23 03:12:40;;;;;;;;;6.33;6.33;;;;;;;;5031763;28;51819;-61
2023/06/23 03:15:05;;;;;;;;;7.67;7.00;;;;;;;;5033991;28;50793;-60
2023/06/23 03:17:34;;;;;;;;;7.67;7.67;;;;;;;;5029717;28;51167;-60
2023/06/23 03:20:11;;;;;;;;;8.00;8.00;;;;;;;;5024608;28;51268;-60
2023/06/23 03:22:42;;;;;;;;;11.00;9.67;;;;;;;;5031321;28;52836;-61
2023/06/23 03:25:11;;;;;;;;;8.00;8.00;;;;;;;;5024646;28;50902;-61
2023/06/23 03:27:37;;;;;;;;;7.33;7.00;;;;;;;;5016207;28;50996;-62
2023/06/23 03:30:07;;;;;;;;;8.33;7.00;;;;;;;;5019230;28;51782;-62
2023/06/23 03:32:34;;;;;;;;;10.00;9.33;;;;;;;;5026885;28;51929;-62
2023/06/23 03:35:04;;;;;;;;;9.67;8.67;;;;;;;;5027672;28;51159;-61
2023/06/23 03:37:31;;;;;;;;;8.67;8.67;;;;;;;;5032108;28;50912;-63
2023/06/23 03:39:59;;;;;;;;;8.00;7.00;;;;;;;;5023807;28;50918;-62
2023/06/23 03:42:25;;;;;;;;;12.00;10.67;;;;;;;;5023316;28;51795;-63
2023/06/23 03:44:51;;;;;;;;;15.00;11.67;;;;;;;;5033041;28;51099;-61
2023/06/23 03:47:17;;;;;;;;;11.00;11.00;;;;;;;;5032452;28;51254;-61
2023/06/23 03:49:46;;;;;;;;;12.33;11.33;;;;;;;;5032098;28;51388;-61
2023/06/23 03:52:13;;;;;;;;;13.75;13.75;;;;;;;;5027223;28;51052;-61
2023/06/23 03:54:39;;;;;;;;;10.67;10.00;;;;;;;;5024471;28;51229;-60
2023/06/23 03:57:07;;;;;;;;;11.00;10.67;;;;;;;;5032934;28;51103;-60
2023/06/23 03:59:33;;;;;;;;;10.33;8.33;;;;;;;;5033410;28;51056;-60
2023/06/23 04:02:00;;;;;;;;;13.67;11.67;;;;;;;;5031943;28;52198;-60
2023/06/23 04:04:26;;;;;;;;;10.00;10.00;;;;;;;;5030117;28;51186;-60
2023/06/23 04:06:52;;;;;;;;;9.00;9.00;;;;;;;;5030350;28;51298;-61
2023/06/23 04:09:18;;;;;;;;;9.67;9.00;;;;;;;;5026787;28;51196;-61
2023/06/23 04:11:45;;;;;;;;;13.67;12.33;;;;;;;;5025776;28;52085;-60
2023/06/23 04:14:12;;;;;;;;;14.00;12.00;;;;;;;;5025959;28;52342;-62
2023/06/23 04:16:40;;;;;;;;;7.67;7.67;;;;;;;;5028281;28;51207;-62
2023/06/23 04:19:05;;;;;;;;;15.00;13.00;;;;;;;;5032416;28;51124;-61
2023/06/23 04:21:32;;;;;;;;;13.00;12.67;;;;;;;;5033705;28;51800;-61
2023/06/23 04:23:59;;;;;;;;;10.00;10.00;;;;;;;;5033645;28;50935;-61
2023/06/23 04:26:26;;;;;;;;;8.00;8.00;;;;;;;;5030724;28;50934;-62
2023/06/23 04:28:53;;;;;;;;;10.00;10.00;;;;;;;;5029183;28;51335;-62
2023/06/23 04:31:19;;;;;;;;;13.67;11.33;;;;;;;;5030072;28;51163;-62
2023/06/23 04:33:45;;;;;;;;;11.33;10.00;;;;;;;;5033294;28;51151;-61
2023/06/23 04:36:16;;;;;;;;;9.00;9.00;;;;;;;;5022355;28;51075;-62
2023/06/23 04:38:47;;;;;;;;;13.67;11.33;;;;;;;;5033643;28;51306;-62
2023/06/23 04:41:17;;;;;;;;;10.00;9.67;;;;;;;;5033048;28;51064;-62
2023/06/23 04:43:43;;;;;;;;;14.00;13.67;;;;;;;;5025407;28;51139;-62
2023/06/23 04:46:13;;;;;;;;;12.33;11.33;;;;;;;;5019712;28;51162;-62
2023/06/23 04:48:41;;;;;;;;;9.00;9.00;;;;;;;;5020819;28;51221;-62
2023/06/23 04:51:07;;;;;;;;;8.33;8.00;;;;;;;;5025030;28;51136;-62
2023/06/23 04:53:36;;;;;;;;;8.33;8.00;;;;;;;;5032985;28;51569;-62
2023/06/23 04:56:04;;;;;;;;;9.33;9.33;;;;;;;;5029422;28;50931;-62
2023/06/23 04:58:33;;;;;;;;;8.67;8.00;;;;;;;;5018057;28;51184;-62
2023/06/23 05:00:59;;;;;;;;;15.33;11.67;;;;;;;;5019625;28;53779;-62
2023/06/23 05:03:26;;;;;;;;;9.00;9.00;;;;;;;;5019208;28;51150;-61
2023/06/23 05:05:56;;;;;;;;;7.33;7.33;;;;;;;;5028591;28;50918;-62
2023/06/23 05:08:24;;;;;;;;;9.67;9.67;;;;;;;;5021436;28;51139;-61
2023/06/23 05:10:49;;;;;;;;;8.00;7.00;;;;;;;;5025731;28;51808;-61
2023/06/23 05:13:17;;;;;;;;;7.33;6.33;;;;;;;;5026857;28;51187;-61
2023/06/23 05:15:43;;;;;;;;;5.00;5.00;;;;;;;;5023586;28;51099;-62
2023/06/23 05:18:09;;;;;;;;;7.00;6.33;;;;;;;;5029803;28;50907;-62
2023/06/23 05:20:35;;;;;;;;;7.33;7.00;;;;;;;;5024645;28;51121;-61
2023/06/23 05:23:04;;;;;;;;;7.67;5.67;;;;;;;;5026324;28;51329;-61
2023/06/23 05:25:32;;;;;;;;;8.33;7.67;;;;;;;;5030496;28;51326;-61
2023/06/23 05:28:00;;;;;;;;;8.00;7.00;;;;;;;;5022600;28;51111;-61
2023/06/23 05:30:26;;;;;;;;;7.00;6.00;;;;;;;;5016881;28;51976;-61
2023/06/23 05:32:52;;;;;;;;;9.00;9.00;;;;;;;;5029833;28;51130;-61
2023/06/23 05:35:18;;;;;;;;;8.00;8.00;;;;;;;;5021792;28;51416;-61
2023/06/23 05:37:44;;;;;;;;;7.33;7.33;;;;;;;;5019760;28;51122;-61
2023/06/23 05:40:12;;;;;;;;;8.67;8.00;;;;;;;;5032797;28;51024;-61
2023/06/23 05:42:38;;;;;;;;;7.00;7.00;;;;;;;;5031092;28;50969;-61
2023/06/23 05:45:03;;;;;;;;;7.67;7.67;;;;;;;;5032027;28;51087;-61
2023/06/23 05:47:52;;;;;;;;;7.67;7.67;;;;;;;;5021951;28;51494;-60
2023/06/23 05:50:20;;;;;;;;;9.33;9.33;;;;;;;;5009623;28;51881;-61
2023/06/23 05:52:50;;;;;;;;;7.00;6.33;;;;;;;;5023117;28;51308;-61
2023/06/23 05:55:16;;;;;;;;;7.00;7.00;;;;;;;;5030500;28;51142;-61
2023/06/23 05:57:42;;;;;;;;;7.67;7.00;;;;;;;;5030975;28;51227;-61
2023/06/23 06:00:13;;;;;;;;;6.67;6.67;;;;;;;;5023113;28;51180;-62
2023/06/23 06:02:40;;;;;;;;;8.33;7.67;;;;;;;;5026161;28;51262;-61
2023/06/23 06:05:07;;;;;;;;;6.00;6.00;;;;;;;;5015975;28;51143;-60
2023/06/23 06:07:34;;;;;;;;;7.67;7.67;;;;;;;;5016257;28;51083;-60
2023/06/23 06:10:01;;;;;;;;;7.00;6.67;;;;;;;;5028924;28;51270;-58
2023/06/23 06:12:27;;;;;;;;;6.67;6.00;;;;;;;;5015636;28;51262;-59
2023/06/23 06:14:53;;;;;;;;;8.33;8.00;;;;;;;;5019899;28;50963;-59
2023/06/23 06:17:18;;;;;;;;;7.00;7.00;;;;;;;;5029144;28;51290;-59
2023/06/23 06:19:44;;;;;;;;;9.00;8.67;;;;;;;;5031000;28;51596;-59
2023/06/23 06:22:10;;;;;;;;;7.00;7.00;;;;;;;;5027442;28;50959;-60
2023/06/23 06:24:37;;;;;;;;;7.00;7.00;;;;;;;;5023579;28;51059;-60
2023/06/23 06:27:04;;;;;;;;;9.33;7.33;;;;;;;;5013876;28;51442;-60
2023/06/23 06:29:29;;;;;;;;;6.33;6.33;;;;;;;;5021668;28;51159;-61
2023/06/23 06:31:56;;;;;;;;;7.00;7.00;;;;;;;;5022690;28;51562;-61
2023/06/23 06:34:23;;;;;;;;;9.00;8.67;;;;;;;;5029567;28;50918;-60
2023/06/23 06:36:49;;;;;;;;;23.33;22.67;;;;;;;;5031263;28;51278;-60
2023/06/23 06:39:15;;;;;;;;;8.00;7.33;;;;;;;;5030684;28;51821;-60
2023/06/23 06:41:41;;;;;;;;;9.67;9.67;;;;;;;;5020831;28;50875;-60
2023/06/23 06:44:06;;;;;;;;;9.00;7.67;;;;;;;;5023367;28;51025;-60
2023/06/23 06:46:33;;;;;;;;;7.33;7.00;;;;;;;;5020088;28;51395;-60
2023/06/23 06:48:58;;;;;;;;;11.00;9.00;;;;;;;;5018941;28;53111;-62
2023/06/23 06:51:25;;;;;;;;;8.33;7.33;;;;;;;;5015858;28;51177;-60
2023/06/23 06:53:50;;;;;;;;;11.75;10.75;;;;;;;;5025779;28;50873;-59
2023/06/23 06:56:16;;;;;;;;;8.00;8.00;;;;;;;;5021084;28;50847;-59
2023/06/23 06:58:41;;;;;;;;;10.00;9.00;;;;;;;;5025280;28;51993;-59
2023/06/23 07:01:07;;;;;;;;;9.67;8.00;;;;;;;;5027614;28;51070;-59
2023/06/23 07:03:32;;;;;;;;;6.33;4.33;;;;;;;;5029694;28;51034;-60
2023/06/23 07:05:57;;;;;;;;;9.00;8.33;;;;;;;;5030997;28;50986;-59
2023/06/23 07:08:23;;;;;;;;;7.33;7.33;;;;;;;;5030568;28;50934;-59
2023/06/23 07:10:48;;;;;;;;;8.00;8.00;;;;;;;;5031276;28;50942;-60
2023/06/23 07:13:13;;;;;;;;;11.00;9.33;;;;;;;;5030682;28;51223;-60
2023/06/23 07:15:39;;;;;;;;;8.33;8.33;;;;;;;;5025874;28;51108;-60
2023/06/23 07:18:04;;;;;;;;;9.00;8.67;;;;;;;;5032577;28;50970;-59
2023/06/23 07:20:29;;;;;;;;;8.00;8.00;;;;;;;;5023078;28;51267;-59
2023/06/23 07:22:54;;;;;;;;;8.33;7.67;;;;;;;;5028282;28;50985;-59
2023/06/23 07:25:19;;;;;;;;;7.33;7.33;;;;;;;;5022090;28;51386;-60
2023/06/23 07:27:48;;;;;;;;;9.67;8.67;;;;;;;;5032960;28;51739;-59
2023/06/23 07:30:13;;;;;;;;;9.00;8.00;;;;;;;;5031677;28;51136;-60
2023/06/23 07:32:38;;;;;;;;;8.00;8.00;;;;;;;;5033198;28;51077;-58
2023/06/23 07:35:04;;;;;;;;;7.67;7.00;;;;;;;;5035124;28;51104;-59
2023/06/23 07:37:30;;;;;;;;;9.67;9.00;;;;;;;;5032150;28;51023;-61
2023/06/23 07:39:55;;;;;;;;;8.33;8.33;;;;;;;;5032273;28;50879;-61
2023/06/23 07:42:20;;;;;;;;;9.00;8.67;;;;;;;;5020935;28;51238;-62
2023/06/23 07:44:45;;;;;;;;;9.33;9.00;;;;;;;;5034791;28;51122;-66
2023/06/23 07:47:12;;;;;;;;;9.33;9.00;;;;;;;;5033901;28;51135;-61
2023/06/23 07:49:37;;;;;;;;;8.67;8.00;;;;;;;;5029580;28;51214;-61
2023/06/23 07:52:04;;;;;;;;;10.67;10.67;;;;;;;;5028411;28;51070;-59
2023/06/23 07:54:30;;;;;;;;;8.67;7.00;;;;;;;;5027075;28;51867;-59
2023/06/23 07:56:55;;;;;;;;;9.00;9.00;;;;;;;;5025279;28;50993;-59
2023/06/23 07:59:21;;;;;;;;;8.00;8.00;;;;;;;;5013809;28;51965;-59
2023/06/23 08:01:46;;;;;;;;;8.33;8.33;;;;;;;;5027514;28;51110;-58
2023/06/23 08:04:11;;;;;;;;;7.67;7.33;;;;;;;;5020910;28;51122;-58
2023/06/23 08:06:36;;;;;;;;;8.00;7.00;;;;;;;;5020934;28;52031;-58
2023/06/23 08:09:02;;;;;;;;;9.67;9.00;;;;;;;;5021334;28;51302;-59
2023/06/23 08:11:27;;;;;;;;;7.00;7.00;;;;;;;;5021014;28;51296;-58
2023/06/23 08:13:52;;;;;;;;;6.67;6.67;;;;;;;;5017060;28;51112;-58
2023/06/23 08:16:17;;;;;;;;;9.67;9.00;;;;;;;;5023148;28;54324;-58
2023/06/23 08:18:42;;;;;;;;;7.00;6.33;;;;;;;;5027309;28;51198;-58
2023/06/23 08:21:09;;;;;;;;;10.00;8.00;;;;;;;;5025007;28;51242;-58
2023/06/23 08:23:34;;;;;;;;;6.00;6.00;;;;;;;;5019801;28;51264;-58
2023/06/23 08:25:59;;;;;;;;;5.33;4.67;;;;;;;;5030280;28;51040;-56
2023/06/23 08:28:24;;;;;;;;;7.67;7.00;;;;;;;;5025101;28;51015;-56
2023/06/23 08:30:50;;;;;;;;;6.00;6.00;;;;;;;;5028413;28;52123;-57
2023/06/23 08:33:15;;;;;;;;;6.00;5.00;;;;;;;;5026667;28;50810;-56
2023/06/23 08:35:40;;;;;;;;;8.67;8.67;;;;;;;;5032624;28;51672;-56
2023/06/23 08:38:05;;;;;;;;;5.00;5.00;;;;;;;;5033022;28;51104;-57
2023/06/23 08:40:30;;;;;;;;;7.33;7.33;;;;;;;;5023754;28;51119;-57
2023/06/23 08:42:56;;;;;;;;;7.67;7.67;;;;;;;;5032063;28;51231;-56
2023/06/23 08:45:23;;;;;;;;;11.00;10.00;;;;;;;;5030267;28;51863;-67
2023/06/23 08:47:51;;;;;;;;;6.67;6.67;;;;;;;;5026806;28;51341;-70
2023/06/23 08:50:16;;;;;;;;;3.67;3.67;;;;;;;;5028401;28;51146;-69
2023/06/23 08:52:42;;;;;;;;;6.00;4.33;;;;;;;;5032796;28;51033;-62
2023/06/23 08:55:08;;;;;;;;;4.67;4.67;;;;;;;;5025070;28;51216;-67
2023/06/23 08:57:34;;;;;;;;;6.33;6.00;;;;;;;;5032519;28;51045;-67
2023/06/23 08:59:59;;;;;;;;;6.33;6.33;;;;;;;;5031297;28;51123;-68
2023/06/23 09:02:25;;;;;;;;;7.00;7.00;;;;;;;;5030648;28;51132;-68
2023/06/23 09:04:50;;;;;;;;;6.67;6.33;;;;;;;;5029141;28;52619;-67
2023/06/23 09:07:15;;;;;;;;;5.00;4.33;;;;;;;;5025647;28;51271;-68
2023/06/23 09:09:45;;;;;;;;;7.67;6.67;;;;;;;;5022903;28;51153;-67
2023/06/23 09:12:10;;;;;;;;;4.00;4.00;;;;;;;;5028881;28;51460;-67
2023/06/23 09:14:37;;;;;;;;;8.33;8.33;;;;;;;;5033353;28;52145;-66
2023/06/23 09:17:02;;;;;;;;;5.67;5.67;;;;;;;;5029602;28;51113;-66
2023/06/23 09:19:28;;;;;;;;;7.00;6.00;;;;;;;;5028688;28;51121;-67
2023/06/23 09:21:54;;;;;;;;;4.00;4.00;;;;;;;;5039233;28;51193;-67
2023/06/23 09:24:19;;;;;;;;;7.00;6.33;;;;;;;;5022136;28;53332;-67
2023/06/23 09:26:47;;;;;;;;;5.00;5.00;;;;;;;;5038340;28;51022;-67
2023/06/23 09:29:13;;;;;;;;;6.00;6.00;;;;;;;;5028452;28;51039;-67
2023/06/23 09:31:39;;;;;;;;;5.00;5.00;;;;;;;;5024145;28;51383;-66
2023/06/23 09:34:05;;;;;;;;;6.00;6.00;;;;;;;;5030856;28;51107;-67
2023/06/23 09:36:34;;;;;;;;;8.00;8.00;;;;;;;;5026208;28;51546;-66
2023/06/23 09:39:01;;;;;;;;;5.67;5.33;;;;;;;;5032681;28;51009;-66
2023/06/23 09:41:27;;;;;;;;;4.67;4.67;;;;;;;;5033659;28;51276;-66
2023/06/23 09:43:52;;;;;;;;;4.33;4.33;;;;;;;;5027982;28;51146;-66
2023/06/23 09:46:18;;;;;;;;;5.00;5.00;;;;;;;;5027597;28;50843;-66
2023/06/23 09:48:45;;;;;;;;;6.00;5.33;;;;;;;;5043212;28;51123;-66
2023/06/23 09:51:11;;;;;;;;;5.00;5.00;;;;;;;;5033126;28;51183;-66
2023/06/23 09:53:37;;;;;;;;;6.67;6.00;;;;;;;;5024770;28;51676;-65
2023/06/23 09:56:03;;;;;;;;;7.00;6.00;;;;;;;;5039998;28;51008;-66
2023/06/23 09:58:35;;;;;;;;;7.00;6.00;;;;;;;;5022833;28;51310;-66
2023/06/23 10:01:04;;;;;;;;;9.33;9.33;;;;;;;;5019752;28;51635;-65
2023/06/23 10:03:30;;;;;;;;;6.00;5.33;;;;;;;;5023004;28;52043;-66
2023/06/23 10:05:56;;;;;;;;;6.33;5.33;;;;;;;;5031687;28;51225;-66
2023/06/23 10:08:21;;;;;;;;;6.00;5.33;;;;;;;;5032799;28;51070;-65
2023/06/23 10:10:46;;;;;;;;;12.00;11.67;;;;;;;;5029655;28;51337;-65
2023/06/23 10:13:12;;;;;;;;;8.67;8.67;;;;;;;;5033202;28;51761;-65
2023/06/23 10:15:40;;;;;;;;;5.33;5.33;;;;;;;;5026763;28;51192;-65
2023/06/23 10:18:05;;;;;;;;;6.00;6.00;;;;;;;;5019139;28;52035;-65
2023/06/23 10:20:30;;;;;;;;;7.00;6.00;;;;;;;;5020920;28;51137;-65
2023/06/23 10:22:56;;;;;;;;;6.33;5.33;;;;;;;;5035523;28;52101;-65
2023/06/23 10:25:22;;;;;;;;;6.00;6.00;;;;;;;;5031350;28;51142;-65
2023/06/23 10:27:52;;;;;;;;;5.67;5.00;;;;;;;;5026149;28;51320;-64
2023/06/23 10:30:18;;;;;;;;;7.00;6.33;;;;;;;;5022931;28;51325;-64
2023/06/23 10:32:49;;;;;;;;;6.33;6.33;;;;;;;;5031480;28;54443;-64
2023/06/23 10:35:19;;;;;;;;;7.67;7.67;;;;;;;;5018066;28;51226;-63
2023/06/23 10:37:47;;;;;;;;;7.00;7.00;;;;;;;;5038711;28;51190;-64
2023/06/23 10:40:18;;;;;;;;;7.33;7.33;;;;;;;;5023628;28;51146;-64
2023/06/23 10:42:45;;;;;;;;;7.00;6.33;;;;;;;;5023697;28;51317;-65
2023/06/23 10:45:10;;;;;;;;;23.00;21.75;;;;;;;;5022267;28;51199;-65
2023/06/23 10:47:35;;;;;;;;;6.67;6.67;;;;;;;;5042753;28;51552;-65
2023/06/23 10:50:01;;;;;;;;;8.33;8.00;;;;;;;;5027156;28;51285;-65
2023/06/23 10:52:26;;;;;;;;;8.67;8.33;;;;;;;;5021092;28;51972;-64
2023/06/23 10:54:51;;;;;;;;;7.67;7.67;;;;;;;;5033876;28;50977;-65
2023/06/23 10:57:17;;;;;;;;;7.67;7.67;;;;;;;;5033201;28;51047;-65
2023/06/23 10:59:43;;;;;;;;;7.67;7.67;;;;;;;;5032298;28;51183;-64
2023/06/23 11:02:09;;;;;;;;;9.67;9.67;;;;;;;;5034142;28;52746;-65
2023/06/23 11:04:37;;;;;;;;;4.33;4.33;;;;;;;;5034667;28;51171;-65
2023/06/23 11:07:09;;;;;;;;;7.67;7.00;;;;;;;;5034244;28;51035;-67
2023/06/23 11:09:45;;;;;;;;;9.33;9.00;;;;;;;;5034348;28;51161;-65
2023/06/23 11:12:29;;;;;;;;;6.00;6.00;;;;;;;;5022724;28;51979;-64
2023/06/23 11:15:02;;;;;;;;;7.00;7.00;;;;;;;;5017603;28;51059;-64
2023/06/23 11:17:27;;;;;;;;;8.00;7.33;;;;;;;;5022860;28;51021;-64
2023/06/23 11:19:53;;;;;;;;;9.00;8.33;;;;;;;;5014216;28;51090;-66
2023/06/23 11:22:23;;;;;;;;;8.33;7.33;;;;;;;;5012492;28;54234;-65
2023/06/23 11:24:52;;;;;;;;;5.00;5.00;;;;;;;;5016281;28;50952;-66
2023/06/23 11:27:17;;;;;;;;;8.00;8.00;;;;;;;;5012784;28;51071;-65
2023/06/23 11:29:42;;;;;;;;;8.00;7.33;;;;;;;;5018118;28;51297;-64
2023/06/23 11:32:14;;;;;;;;;10.00;10.00;;;;;;;;5015087;28;50997;-64
2023/06/23 11:34:48;;;;;;;;;9.33;8.33;;;;;;;;5014038;28;53535;-65
2023/06/23 11:37:14;;;;;;;;;10.67;10.67;;;;;;;;5013683;28;51052;-65
2023/06/23 11:39:39;;;;;;;;;7.00;7.00;;;;;;;;5014709;28;51231;-64
2023/06/23 11:42:05;;;;;;;;;8.67;7.67;;;;;;;;5013552;28;51260;-64
2023/06/23 11:44:30;;;;;;;;;7.33;7.33;;;;;;;;5018086;28;50973;-66
2023/06/23 11:46:55;;;;;;;;;6.00;6.00;;;;;;;;5033971;28;51252;-64
2023/06/23 11:49:23;;;;;;;;;8.00;8.00;;;;;;;;5034293;28;51192;-64
2023/06/23 11:51:48;;;;;;;;;6.00;5.33;;;;;;;;5027658;28;51021;-64
2023/06/23 11:54:13;;;;;;;;;8.33;7.33;;;;;;;;5019596;28;51204;-64
2023/06/23 11:56:42;;;;;;;;;10.00;9.00;;;;;;;;5014268;28;50914;-64
2023/06/23 11:59:08;;;;;;;;;5.33;5.33;;;;;;;;5017113;28;51084;-64
2023/06/23 12:01:33;;;;;;;;;7.00;6.67;;;;;;;;5033198;28;52390;-65
2023/06/23 12:03:59;;;;;;;;;7.67;7.00;;;;;;;;5031941;28;51023;-64
2023/06/23 12:06:24;;;;;;;;;7.33;7.00;;;;;;;;5033500;28;50879;-65
2023/06/23 12:08:50;;;;;;;;;5.00;4.00;;;;;;;;5033456;28;50936;-65
2023/06/23 12:11:22;;;;;;;;;7.33;7.33;;;;;;;;5014541;28;51144;-68
2023/06/23 12:13:51;;;;;;;;;6.33;6.33;;;;;;;;5016504;28;51146;-68
2023/06/23 12:16:16;;;;;;;;;6.67;6.67;;;;;;;;5022797;28;50946;-68
2023/06/23 12:18:42;;;;;;;;;7.33;6.00;;;;;;;;5013554;28;51242;-68
2023/06/23 12:21:07;;;;;;;;;6.00;6.00;;;;;;;;5013234;28;51693;-68
2023/06/23 12:23:32;;;;;;;;;6.00;5.00;;;;;;;;5018085;28;51163;-68
2023/06/23 12:25:58;;;;;;;;;8.33;7.33;;;;;;;;5013824;28;50903;-67
2023/06/23 12:28:26;;;;;;;;;6.00;6.00;;;;;;;;5021344;28;51182;-67
2023/06/23 12:30:52;;;;;;;;;6.67;6.00;;;;;;;;5024744;28;51938;-69
2023/06/23 12:33:20;;;;;;;;;7.33;6.33;;;;;;;;5013400;28;50853;-68
2023/06/23 12:35:56;;;;;;;;;6.00;6.00;;;;;;;;5013537;28;51380;-69
2023/06/23 12:38:22;;;;;;;;;7.33;7.00;;;;;;;;5033557;28;51425;-68
2023/06/23 12:40:47;;;;;;;;;5.67;5.33;;;;;;;;5013126;28;50983;-67
2023/06/23 12:43:12;;;;;;;;;7.33;7.33;;;;;;;;5013369;28;51192;-67
2023/06/23 12:45:37;;;;;;;;;8.00;8.00;;;;;;;;5013143;28;50980;-67
2023/06/23 12:48:03;;;;;;;;;7.00;7.00;;;;;;;;5026502;28;51250;-68
2023/06/23 12:50:31;;;;;;;;;5.00;5.00;;;;;;;;5012383;28;51212;-67
2023/06/23 12:52:57;;;;;;;;;7.00;6.00;;;;;;;;5022013;28;51291;-67
2023/06/23 12:55:22;;;;;;;;;8.00;7.33;;;;;;;;5013489;28;50906;-68
2023/06/23 12:57:49;;;;;;;;;7.00;7.00;;;;;;;;5013201;28;51104;-68
2023/06/23 13:00:14;;;;;;;;;8.00;7.67;;;;;;;;5019996;28;51862;-69
2023/06/23 13:02:40;;;;;;;;;6.33;6.00;;;;;;;;5030281;28;50947;-68
2023/06/23 13:05:05;;;;;;;;;5.67;5.67;;;;;;;;5030036;28;50890;-68
2023/06/23 13:07:30;;;;;;;;;8.00;8.00;;;;;;;;5031559;28;51049;-68
2023/06/23 13:09:55;;;;;;;;;5.67;5.67;;;;;;;;5030388;28;53542;-70
2023/06/23 13:12:21;;;;;;;;;5.00;4.33;;;;;;;;5026802;28;51053;-70
2023/06/23 13:14:46;;;;;;;;;7.33;7.00;;;;;;;;5014277;28;51061;-67
2023/06/23 13:17:11;;;;;;;;;7.00;6.33;;;;;;;;5015206;28;51104;-68
2023/06/23 13:19:36;;;;;;;;;6.00;6.00;;;;;;;;5031626;28;52049;-68
2023/06/23 13:22:02;;;;;;;;;5.00;5.00;;;;;;;;5031319;28;50949;-67
2023/06/23 13:24:27;;;;;;;;;8.67;7.67;;;;;;;;5011302;28;51041;-67
2023/06/23 13:26:52;;;;;;;;;8.00;8.00;;;;;;;;5012594;28;51120;-67
2023/06/23 13:29:17;;;;;;;;;5.00;5.00;;;;;;;;5012509;28;51149;-66
2023/06/23 13:31:43;;;;;;;;;7.33;6.00;;;;;;;;5019641;28;51105;-67
2023/06/23 13:34:08;;;;;;;;;5.33;5.00;;;;;;;;5024079;28;51425;-68
2023/06/23 13:36:35;;;;;;;;;8.00;8.00;;;;;;;;5012669;28;51033;-68
2023/06/23 13:39:01;;;;;;;;;4.67;4.67;;;;;;;;5012440;28;51926;-68
2023/06/23 13:41:28;;;;;;;;;7.00;6.67;;;;;;;;5012653;28;50891;-68
2023/06/23 13:43:54;;;;;;;;;4.00;4.00;;;;;;;;5012922;28;50947;-67
2023/06/23 13:46:19;;;;;;;;;8.33;7.67;;;;;;;;5012806;28;50951;-68
2023/06/23 13:48:44;;;;;;;;;5.67;5.67;;;;;;;;5023186;28;53915;-67
2023/06/23 13:51:09;;;;;;;;;9.00;7.00;;;;;;;;5012795;28;50973;-67
2023/06/23 13:53:40;;;;;;;;;4.00;3.67;;;;;;;;5015202;28;51366;-67
2023/06/23 13:56:08;;;;;;;;;8.67;8.67;;;;;;;;5025068;28;51342;-68
2023/06/23 13:58:33;;;;;;;;;4.33;4.33;;;;;;;;5022406;28;51218;-66
2023/06/23 14:00:59;;;;;;;;;6.00;6.00;;;;;;;;5024447;28;51352;-67
2023/06/23 14:03:24;;;;;;;;;7.00;6.33;;;;;;;;5022991;28;51320;-66
2023/06/23 14:05:49;;;;;;;;;0.00;0.00;;;;;;;;5023216;28;51125;-68
2023/06/23 14:08:14;;;;;;;;;4.67;4.67;;;;;;;;5023877;28;51384;-68
2023/06/23 14:10:39;;;;;;;;;5.67;5.00;;;;;;;;5024926;28;51310;-68
2023/06/23 14:13:05;;;;;;;;;7.67;7.33;;;;;;;;5024102;28;51084;-67
2023/06/23 14:15:30;;;;;;;;;5.00;4.00;;;;;;;;5024537;28;51376;-67
2023/06/23 14:17:55;;;;;;;;;7.33;7.00;;;;;;;;5023443;28;52011;-67
2023/06/23 14:20:21;;;;;;;;;7.00;7.00;;;;;;;;5023240;28;51230;-68
2023/06/23 14:22:46;;;;;;;;;7.00;6.00;;;;;;;;5023609;28;51261;-68
2023/06/23 14:25:11;;;;;;;;;5.00;5.00;;;;;;;;5028018;28;51163;-68
2023/06/23 14:27:37;;;;;;;;;5.00;5.00;;;;;;;;5027447;28;52946;-67
2023/06/23 14:30:03;;;;;;;;;6.00;6.00;;;;;;;;5027445;28;51064;-68
2023/06/23 14:32:30;;;;;;;;;6.33;6.00;;;;;;;;5026508;28;51235;-68
2023/06/23 14:34:55;;;;;;;;;7.00;7.00;;;;;;;;5027658;28;51375;-68